createdAt,value
2017-03-05T00:00:27.622Z,0
2017-03-05T00:01:08.273Z,0
2017-03-05T00:01:48.935Z,0
2017-03-05T00:02:29.601Z,0
2017-03-05T00:03:10.233Z,0
2017-03-05T00:03:50.796Z,0
2017-03-05T00:04:31.368Z,0
2017-03-05T00:05:12.048Z,0
2017-03-05T00:05:52.641Z,0
2017-03-05T00:06:33.314Z,0
2017-03-05T00:07:13.887Z,0
2017-03-05T00:07:54.545Z,0
2017-03-05T00:08:36.319Z,0
2017-03-05T00:09:17.159Z,0
2017-03-05T00:09:57.751Z,0
2017-03-05T00:10:38.402Z,0
2017-03-05T00:11:19.032Z,0
2017-03-05T00:11:59.684Z,0
2017-03-05T00:12:40.241Z,0
2017-03-05T00:13:20.838Z,0
2017-03-05T00:14:01.440Z,0
2017-03-05T00:14:42.104Z,0
2017-03-05T00:15:22.667Z,0
2017-03-05T00:16:03.245Z,0
2017-03-05T00:16:44.853Z,0
2017-03-05T00:17:25.746Z,0
2017-03-05T00:18:06.292Z,0
2017-03-05T00:18:46.920Z,0
2017-03-05T00:19:27.586Z,0
2017-03-05T00:20:08.246Z,0
2017-03-05T00:20:48.890Z,0
2017-03-05T00:21:29.541Z,0
2017-03-05T00:22:10.209Z,0
2017-03-05T00:22:50.851Z,0
2017-03-05T00:23:35.100Z,0
2017-03-05T00:24:15.717Z,0
2017-03-05T00:24:56.746Z,0
2017-03-05T00:25:37.420Z,0
2017-03-05T00:26:18.109Z,0
2017-03-05T00:26:58.939Z,0
2017-03-05T00:27:39.615Z,0
2017-03-05T00:28:20.242Z,0
2017-03-05T00:29:00.932Z,0
2017-03-05T00:29:41.490Z,0
2017-03-05T00:30:22.180Z,0
2017-03-05T00:31:02.897Z,0
2017-03-05T00:31:43.526Z,0
2017-03-05T00:32:24.094Z,0
2017-03-05T00:33:04.793Z,0
2017-03-05T00:33:45.483Z,0
2017-03-05T00:34:26.072Z,0
2017-03-05T00:35:06.703Z,0
2017-03-05T00:35:47.326Z,0
2017-03-05T00:36:27.975Z,0
2017-03-05T00:37:08.749Z,0
2017-03-05T00:37:50.408Z,0
2017-03-05T00:38:32.086Z,0
2017-03-05T00:39:12.736Z,0
2017-03-05T00:39:53.391Z,0
2017-03-05T00:40:34.061Z,0
2017-03-05T00:41:14.697Z,0
2017-03-05T00:41:56.379Z,0
2017-03-05T00:42:37.029Z,0
2017-03-05T00:43:17.681Z,0
2017-03-05T00:43:58.251Z,0
2017-03-05T00:44:38.861Z,0
2017-03-05T00:45:19.549Z,0
2017-03-05T00:46:00.195Z,0
2017-03-05T00:46:40.772Z,0
2017-03-05T00:47:21.470Z,0
2017-03-05T00:48:02.060Z,0
2017-03-05T00:48:42.701Z,0
2017-03-05T00:49:23.273Z,0
2017-03-05T00:50:03.853Z,0
2017-03-05T00:50:45.555Z,0
2017-03-05T00:51:26.221Z,0
2017-03-05T00:52:06.833Z,0
2017-03-05T00:52:47.512Z,0
2017-03-05T00:53:28.150Z,0
2017-03-05T00:54:08.819Z,0
2017-03-05T00:54:49.500Z,0
2017-03-05T00:55:30.152Z,0
2017-03-05T00:56:10.745Z,0
2017-03-05T00:56:51.416Z,0
2017-03-05T00:57:32.111Z,0
2017-03-05T00:58:12.762Z,0
2017-03-05T00:58:53.364Z,0
2017-03-05T00:59:34.031Z,0
2017-03-05T01:00:14.603Z,0
2017-03-05T01:00:55.183Z,0
2017-03-05T01:01:35.899Z,0
2017-03-05T01:02:16.580Z,0
2017-03-05T01:02:57.147Z,0
2017-03-05T01:03:38.799Z,0
2017-03-05T01:04:19.461Z,0
2017-03-05T01:05:00.053Z,0
2017-03-05T01:05:40.737Z,0
2017-03-05T01:06:21.312Z,0
2017-03-05T01:07:01.966Z,0
2017-03-05T01:07:42.528Z,0
2017-03-05T01:08:23.148Z,0
2017-03-05T01:09:03.822Z,0
2017-03-05T01:09:45.501Z,0
2017-03-05T01:10:26.083Z,0
2017-03-05T01:11:06.774Z,0
2017-03-05T01:11:47.471Z,0
2017-03-05T01:12:28.110Z,0
2017-03-05T01:13:08.671Z,0
2017-03-05T01:13:49.289Z,0
2017-03-05T01:14:29.863Z,0
2017-03-05T01:15:10.527Z,0
2017-03-05T01:15:51.091Z,0
2017-03-05T01:16:31.695Z,0
2017-03-05T01:17:12.424Z,0
2017-03-05T01:17:53.038Z,4
2017-03-05T01:18:33.620Z,0
2017-03-05T01:19:14.310Z,0
2017-03-05T01:19:54.999Z,0
2017-03-05T01:20:35.647Z,0
2017-03-05T01:21:16.299Z,0
2017-03-05T01:21:56.952Z,0
2017-03-05T01:22:37.618Z,0
2017-03-05T01:23:18.260Z,0
2017-03-05T01:23:58.930Z,0
2017-03-05T01:24:39.555Z,0
2017-03-05T01:25:20.207Z,0
2017-03-05T01:26:00.879Z,0
2017-03-05T01:26:41.533Z,0
2017-03-05T01:27:22.169Z,0
2017-03-05T01:28:02.821Z,0
2017-03-05T01:28:43.478Z,0
2017-03-05T01:29:24.090Z,0
2017-03-05T01:30:04.772Z,0
2017-03-05T01:30:45.409Z,0
2017-03-05T01:31:25.982Z,0
2017-03-05T01:32:06.557Z,0
2017-03-05T01:32:47.169Z,0
2017-03-05T01:33:27.758Z,0
2017-03-05T01:34:08.466Z,0
2017-03-05T01:34:49.044Z,0
2017-03-05T01:35:29.713Z,0
2017-03-05T01:36:10.351Z,0
2017-03-05T01:36:50.924Z,0
2017-03-05T01:37:31.594Z,0
2017-03-05T01:38:12.202Z,0
2017-03-05T01:38:52.789Z,0
2017-03-05T01:39:33.416Z,0
2017-03-05T01:40:14.060Z,0
2017-03-05T01:40:54.610Z,0
2017-03-05T01:41:35.236Z,0
2017-03-05T01:42:15.822Z,0
2017-03-05T01:42:56.468Z,0
2017-03-05T01:43:37.031Z,0
2017-03-05T01:44:17.647Z,0
2017-03-05T01:44:59.243Z,0
2017-03-05T01:45:39.922Z,0
2017-03-05T01:46:20.550Z,0
2017-03-05T01:47:01.202Z,0
2017-03-05T01:47:41.855Z,0
2017-03-05T01:48:22.507Z,0
2017-03-05T01:49:03.173Z,0
2017-03-05T01:49:44.612Z,0
2017-03-05T01:50:25.271Z,0
2017-03-05T01:51:05.962Z,0
2017-03-05T01:51:46.618Z,0
2017-03-05T01:52:27.196Z,0
2017-03-05T01:53:07.862Z,0
2017-03-05T01:53:48.458Z,0
2017-03-05T01:54:29.119Z,0
2017-03-05T01:55:09.691Z,0
2017-03-05T01:55:51.317Z,0
2017-03-05T01:56:33.926Z,0
2017-03-05T01:57:14.587Z,0
2017-03-05T01:57:55.159Z,0
2017-03-05T01:58:35.791Z,0
2017-03-05T01:59:16.439Z,0
2017-03-05T01:59:57.097Z,0
2017-03-05T02:00:37.759Z,0
2017-03-05T02:01:18.405Z,0
2017-03-05T02:01:59.056Z,0
2017-03-05T02:02:39.708Z,0
2017-03-05T02:03:20.363Z,0
2017-03-05T02:04:01.032Z,0
2017-03-05T02:04:41.610Z,0
2017-03-05T02:05:22.286Z,0
2017-03-05T02:06:02.876Z,0
2017-03-05T02:06:43.534Z,0
2017-03-05T02:07:24.109Z,0
2017-03-05T02:08:04.796Z,0
2017-03-05T02:08:45.381Z,0
2017-03-05T02:09:26.034Z,0
2017-03-05T02:10:06.688Z,0
2017-03-05T02:10:47.350Z,0
2017-03-05T02:11:27.995Z,0
2017-03-05T02:12:08.653Z,0
2017-03-05T02:12:49.309Z,0
2017-03-05T02:13:29.957Z,0
2017-03-05T02:14:10.624Z,0
2017-03-05T02:14:51.268Z,0
2017-03-05T02:15:31.916Z,0
2017-03-05T02:16:12.587Z,0
2017-03-05T02:16:53.221Z,0
2017-03-05T02:17:33.872Z,0
2017-03-05T02:18:14.537Z,0
2017-03-05T02:18:55.175Z,0
2017-03-05T02:19:35.833Z,0
2017-03-05T02:20:16.499Z,0
2017-03-05T02:20:57.131Z,0
2017-03-05T02:21:37.800Z,0
2017-03-05T02:22:19.503Z,0
2017-03-05T02:23:00.115Z,0
2017-03-05T02:23:40.797Z,0
2017-03-05T02:24:21.355Z,0
2017-03-05T02:25:02.036Z,0
2017-03-05T02:25:42.638Z,0
2017-03-05T02:26:23.285Z,0
2017-03-05T02:27:03.896Z,0
2017-03-05T02:27:44.544Z,0
2017-03-05T02:28:25.127Z,0
2017-03-05T02:29:05.789Z,0
2017-03-05T02:29:46.447Z,0
2017-03-05T02:30:27.091Z,0
2017-03-05T02:31:07.753Z,0
2017-03-05T02:31:48.408Z,0
2017-03-05T02:32:29.058Z,0
2017-03-05T02:33:09.712Z,0
2017-03-05T02:33:50.365Z,0
2017-03-05T02:34:31.017Z,0
2017-03-05T02:35:11.669Z,0
2017-03-05T02:35:52.418Z,0
2017-03-05T02:36:33.080Z,0
2017-03-05T02:37:13.732Z,0
2017-03-05T02:37:54.388Z,0
2017-03-05T02:38:35.037Z,0
2017-03-05T02:39:15.721Z,0
2017-03-05T02:39:56.263Z,0
2017-03-05T02:40:36.843Z,0
2017-03-05T02:41:17.439Z,0
2017-03-05T02:41:59.130Z,0
2017-03-05T02:42:39.701Z,0
2017-03-05T02:43:20.387Z,0
2017-03-05T02:44:00.981Z,0
2017-03-05T02:44:41.631Z,0
2017-03-05T02:45:22.290Z,0
2017-03-05T02:46:02.943Z,0
2017-03-05T02:46:43.591Z,0
2017-03-05T02:47:24.241Z,0
2017-03-05T02:48:04.899Z,0
2017-03-05T02:48:45.548Z,0
2017-03-05T02:49:26.120Z,0
2017-03-05T02:50:06.698Z,0
2017-03-05T02:50:47.321Z,0
2017-03-05T02:51:27.959Z,0
2017-03-05T02:52:09.408Z,0
2017-03-05T02:52:50.037Z,0
2017-03-05T02:53:30.639Z,0
2017-03-05T02:54:11.284Z,0
2017-03-05T02:54:51.939Z,0
2017-03-05T02:55:32.591Z,0
2017-03-05T02:56:13.244Z,0
2017-03-05T02:56:53.897Z,0
2017-03-05T02:57:34.561Z,0
2017-03-05T02:58:15.206Z,0
2017-03-05T02:58:55.855Z,0
2017-03-05T02:59:36.426Z,0
2017-03-05T03:00:17.058Z,0
2017-03-05T03:00:57.731Z,0
2017-03-05T03:01:38.323Z,0
2017-03-05T03:02:19.034Z,0
2017-03-05T03:02:59.608Z,0
2017-03-05T03:03:40.225Z,0
2017-03-05T03:04:20.874Z,0
2017-03-05T03:05:01.542Z,0
2017-03-05T03:05:42.179Z,0
2017-03-05T03:06:22.830Z,0
2017-03-05T03:07:03.485Z,0
2017-03-05T03:07:44.135Z,0
2017-03-05T03:08:24.784Z,0
2017-03-05T03:09:05.440Z,0
2017-03-05T03:09:46.047Z,0
2017-03-05T03:10:26.707Z,0
2017-03-05T03:11:07.324Z,0
2017-03-05T03:11:47.952Z,0
2017-03-05T03:12:28.536Z,0
2017-03-05T03:13:09.210Z,0
2017-03-05T03:13:49.804Z,0
2017-03-05T03:14:30.475Z,0
2017-03-05T03:15:11.040Z,0
2017-03-05T03:15:51.608Z,0
2017-03-05T03:16:32.228Z,0
2017-03-05T03:17:12.864Z,0
2017-03-05T03:17:53.432Z,0
2017-03-05T03:18:34.020Z,0
2017-03-05T03:19:14.721Z,0
2017-03-05T03:19:55.377Z,0
2017-03-05T03:20:35.986Z,0
2017-03-05T03:21:16.625Z,0
2017-03-05T03:21:57.241Z,0
2017-03-05T03:22:37.882Z,0
2017-03-05T03:23:18.451Z,0
2017-03-05T03:23:59.063Z,0
2017-03-05T03:24:40.662Z,0
2017-03-05T03:25:21.318Z,0
2017-03-05T03:26:01.972Z,0
2017-03-05T03:26:42.635Z,0
2017-03-05T03:27:24.306Z,0
2017-03-05T03:28:04.966Z,0
2017-03-05T03:28:45.620Z,0
2017-03-05T03:29:26.273Z,0
2017-03-05T03:30:06.923Z,0
2017-03-05T03:30:47.575Z,0
2017-03-05T03:31:28.226Z,0
2017-03-05T03:32:08.791Z,0
2017-03-05T03:32:49.426Z,0
2017-03-05T03:33:30.083Z,0
2017-03-05T03:34:10.742Z,0
2017-03-05T03:34:51.384Z,0
2017-03-05T03:35:32.048Z,0
2017-03-05T03:36:12.696Z,0
2017-03-05T03:36:53.349Z,0
2017-03-05T03:37:33.996Z,0
2017-03-05T03:38:14.651Z,0
2017-03-05T03:38:55.310Z,0
2017-03-05T03:39:35.962Z,0
2017-03-05T03:40:16.529Z,0
2017-03-05T03:40:57.100Z,0
2017-03-05T03:41:37.716Z,0
2017-03-05T03:42:18.366Z,0
2017-03-05T03:42:58.946Z,0
2017-03-05T03:43:39.627Z,0
2017-03-05T03:44:20.329Z,0
2017-03-05T03:45:00.972Z,0
2017-03-05T03:45:41.624Z,0
2017-03-05T03:46:22.285Z,0
2017-03-05T03:47:02.942Z,0
2017-03-05T03:47:43.593Z,0
2017-03-05T03:48:24.242Z,0
2017-03-05T03:49:04.899Z,0
2017-03-05T03:49:45.473Z,0
2017-03-05T03:50:26.178Z,0
2017-03-05T03:51:06.857Z,0
2017-03-05T03:51:47.506Z,0
2017-03-05T03:52:28.088Z,0
2017-03-05T03:53:09.681Z,0
2017-03-05T03:53:51.302Z,0
2017-03-05T03:54:31.955Z,0
2017-03-05T03:55:12.607Z,0
2017-03-05T03:55:53.260Z,0
2017-03-05T03:56:33.925Z,0
2017-03-05T03:57:14.573Z,0
2017-03-05T03:57:55.228Z,0
2017-03-05T03:58:35.875Z,0
2017-03-05T03:59:16.538Z,0
2017-03-05T03:59:57.110Z,0
2017-03-05T04:00:37.745Z,0
2017-03-05T04:01:18.389Z,0
2017-03-05T04:01:58.960Z,0
2017-03-05T04:02:39.608Z,0
2017-03-05T04:03:20.959Z,0
2017-03-05T04:04:01.537Z,0
2017-03-05T04:04:42.166Z,0
2017-03-05T04:05:22.814Z,0
2017-03-05T04:06:03.387Z,0
2017-03-05T04:06:44.021Z,0
2017-03-05T04:07:24.672Z,0
2017-03-05T04:08:05.261Z,0
2017-03-05T04:08:45.874Z,0
2017-03-05T04:09:26.528Z,0
2017-03-05T04:10:07.185Z,0
2017-03-05T04:10:47.835Z,0
2017-03-05T04:11:28.488Z,0
2017-03-05T04:12:09.147Z,0
2017-03-05T04:12:49.797Z,0
2017-03-05T04:13:30.953Z,0
2017-03-05T04:14:11.623Z,0
2017-03-05T04:14:52.268Z,0
2017-03-05T04:15:32.919Z,0
2017-03-05T04:16:13.573Z,0
2017-03-05T04:16:54.228Z,0
2017-03-05T04:17:34.875Z,0
2017-03-05T04:18:15.525Z,0
2017-03-05T04:18:56.181Z,0
2017-03-05T04:19:36.832Z,0
2017-03-05T04:20:17.487Z,0
2017-03-05T04:20:58.142Z,0
2017-03-05T04:21:38.796Z,0
2017-03-05T04:22:19.445Z,0
2017-03-05T04:23:00.098Z,0
2017-03-05T04:23:40.743Z,0
2017-03-05T04:24:21.406Z,0
2017-03-05T04:25:02.056Z,0
2017-03-05T04:25:42.711Z,0
2017-03-05T04:26:23.363Z,0
2017-03-05T04:27:03.927Z,0
2017-03-05T04:27:44.566Z,0
2017-03-05T04:28:25.224Z,0
2017-03-05T04:29:05.873Z,0
2017-03-05T04:29:46.523Z,0
2017-03-05T04:30:27.177Z,0
2017-03-05T04:31:07.831Z,0
2017-03-05T04:31:48.481Z,0
2017-03-05T04:32:29.133Z,0
2017-03-05T04:33:09.789Z,0
2017-03-05T04:33:50.439Z,0
2017-03-05T04:34:31.096Z,0
2017-03-05T04:35:11.681Z,0
2017-03-05T04:35:52.297Z,0
2017-03-05T04:36:32.953Z,0
2017-03-05T04:37:13.538Z,0
2017-03-05T04:37:54.267Z,0
2017-03-05T04:38:34.920Z,0
2017-03-05T04:39:15.482Z,0
2017-03-05T04:39:56.219Z,0
2017-03-05T04:40:36.969Z,0
2017-03-05T04:41:17.626Z,0
2017-03-05T04:41:58.275Z,0
2017-03-05T04:42:38.933Z,0
2017-03-05T04:43:19.611Z,0
2017-03-05T04:44:00.235Z,0
2017-03-05T04:44:40.813Z,0
2017-03-05T04:45:21.453Z,0
2017-03-05T04:46:02.105Z,0
2017-03-05T04:46:42.668Z,0
2017-03-05T04:47:23.290Z,0
2017-03-05T04:48:03.961Z,0
2017-03-05T04:48:44.523Z,0
2017-03-05T04:49:25.144Z,0
2017-03-05T04:50:05.808Z,0
2017-03-05T04:50:46.457Z,0
2017-03-05T04:51:27.114Z,0
2017-03-05T04:52:07.676Z,0
2017-03-05T04:52:48.319Z,0
2017-03-05T04:53:28.966Z,0
2017-03-05T04:54:09.618Z,0
2017-03-05T04:54:50.270Z,0
2017-03-05T04:55:31.969Z,0
2017-03-05T04:56:12.606Z,0
2017-03-05T04:56:53.254Z,0
2017-03-05T04:57:33.905Z,0
2017-03-05T04:58:14.574Z,0
2017-03-05T04:58:55.221Z,0
2017-03-05T04:59:35.868Z,0
2017-03-05T05:00:16.519Z,0
2017-03-05T05:00:57.172Z,0
2017-03-05T05:01:37.825Z,0
2017-03-05T05:02:18.401Z,0
2017-03-05T05:02:59.059Z,0
2017-03-05T05:03:39.678Z,0
2017-03-05T05:04:20.337Z,0
2017-03-05T05:05:00.899Z,0
2017-03-05T05:05:41.473Z,0
2017-03-05T05:06:22.101Z,0
2017-03-05T05:07:02.740Z,0
2017-03-05T05:07:43.301Z,0
2017-03-05T05:08:23.906Z,0
2017-03-05T05:09:04.488Z,0
2017-03-05T05:09:45.171Z,0
2017-03-05T05:10:25.721Z,0
2017-03-05T05:11:06.354Z,0
2017-03-05T05:11:47.012Z,0
2017-03-05T05:12:27.616Z,0
2017-03-05T05:13:08.203Z,0
2017-03-05T05:13:48.866Z,0
2017-03-05T05:14:29.431Z,0
2017-03-05T05:15:10.061Z,0
2017-03-05T05:15:50.717Z,0
2017-03-05T05:16:31.384Z,0
2017-03-05T05:17:12.037Z,0
2017-03-05T05:17:52.687Z,0
2017-03-05T05:18:33.324Z,0
2017-03-05T05:19:13.993Z,0
2017-03-05T05:19:54.576Z,0
2017-03-05T05:20:36.001Z,0
2017-03-05T05:21:16.655Z,0
2017-03-05T05:21:57.311Z,0
2017-03-05T05:22:37.883Z,0
2017-03-05T05:23:18.458Z,0
2017-03-05T05:23:59.064Z,0
2017-03-05T05:24:39.729Z,0
2017-03-05T05:25:20.379Z,0
2017-03-05T05:26:01.033Z,0
2017-03-05T05:26:41.677Z,0
2017-03-05T05:27:22.347Z,0
2017-03-05T05:28:02.992Z,0
2017-03-05T05:28:43.654Z,0
2017-03-05T05:29:24.296Z,0
2017-03-05T05:30:04.960Z,0
2017-03-05T05:30:45.602Z,0
2017-03-05T05:31:26.255Z,0
2017-03-05T05:32:06.913Z,0
2017-03-05T05:32:47.560Z,0
2017-03-05T05:33:28.215Z,0
2017-03-05T05:34:08.866Z,0
2017-03-05T05:34:49.519Z,0
2017-03-05T05:35:30.184Z,0
2017-03-05T05:36:10.832Z,0
2017-03-05T05:36:51.484Z,0
2017-03-05T05:37:32.130Z,0
2017-03-05T05:38:12.793Z,4
2017-03-05T05:38:53.355Z,4
2017-03-05T05:39:33.986Z,4
2017-03-05T05:40:14.638Z,4
2017-03-05T05:40:55.293Z,4
2017-03-05T05:41:35.981Z,4
2017-03-05T05:42:16.598Z,4
2017-03-05T05:42:57.260Z,0
2017-03-05T05:43:37.900Z,4
2017-03-05T05:44:18.552Z,4
2017-03-05T05:44:59.219Z,4
2017-03-05T05:45:39.858Z,8
2017-03-05T05:46:20.513Z,8
2017-03-05T05:47:01.176Z,4
2017-03-05T05:47:41.827Z,4
2017-03-05T05:48:22.480Z,4
2017-03-05T05:49:03.123Z,8
2017-03-05T05:49:43.786Z,8
2017-03-05T05:50:24.432Z,8
2017-03-05T05:51:05.083Z,12
2017-03-05T05:51:45.733Z,8
2017-03-05T05:52:26.394Z,8
2017-03-05T05:53:07.055Z,12
2017-03-05T05:53:47.704Z,8
2017-03-05T05:54:28.359Z,12
2017-03-05T05:55:08.925Z,16
2017-03-05T05:55:49.508Z,16
2017-03-05T05:56:30.100Z,20
2017-03-05T05:57:10.761Z,16
2017-03-05T05:57:51.337Z,20
2017-03-05T05:58:32.019Z,20
2017-03-05T05:59:12.617Z,24
2017-03-05T05:59:53.271Z,24
2017-03-05T06:00:33.846Z,28
2017-03-05T06:01:14.472Z,28
2017-03-05T06:01:55.120Z,32
2017-03-05T06:02:35.780Z,36
2017-03-05T06:03:16.422Z,40
2017-03-05T06:03:57.090Z,44
2017-03-05T06:04:37.726Z,48
2017-03-05T06:05:18.392Z,52
2017-03-05T06:05:59.044Z,60
2017-03-05T06:06:39.708Z,64
2017-03-05T06:07:20.350Z,72
2017-03-05T06:08:01.001Z,76
2017-03-05T06:08:41.577Z,84
2017-03-05T06:09:22.149Z,84
2017-03-05T06:10:02.827Z,84
2017-03-05T06:10:43.406Z,88
2017-03-05T06:11:24.063Z,96
2017-03-05T06:12:04.651Z,100
2017-03-05T06:12:45.329Z,100
2017-03-05T06:13:25.910Z,96
2017-03-05T06:14:06.573Z,104
2017-03-05T06:14:47.137Z,108
2017-03-05T06:15:27.769Z,108
2017-03-05T06:16:08.333Z,92
2017-03-05T06:16:48.977Z,80
2017-03-05T06:17:29.629Z,88
2017-03-05T06:18:11.204Z,92
2017-03-05T06:18:54.417Z,88
2017-03-05T06:19:35.131Z,76
2017-03-05T06:20:15.789Z,68
2017-03-05T06:20:56.446Z,64
2017-03-05T06:21:37.199Z,56
2017-03-05T06:22:17.849Z,68
2017-03-05T06:22:58.505Z,68
2017-03-05T06:23:39.150Z,72
2017-03-05T06:24:19.816Z,80
2017-03-05T06:25:00.461Z,92
2017-03-05T06:25:41.216Z,104
2017-03-05T06:26:21.874Z,120
2017-03-05T06:27:02.520Z,128
2017-03-05T06:27:43.172Z,156
2017-03-05T06:28:23.832Z,188
2017-03-05T06:29:04.484Z,192
2017-03-05T06:29:45.127Z,184
2017-03-05T06:30:25.695Z,216
2017-03-05T06:31:06.342Z,220
2017-03-05T06:31:46.986Z,212
2017-03-05T06:32:27.546Z,200
2017-03-05T06:33:08.179Z,208
2017-03-05T06:33:48.750Z,260
2017-03-05T06:34:29.385Z,280
2017-03-05T06:35:10.050Z,264
2017-03-05T06:35:50.711Z,272
2017-03-05T06:36:31.360Z,280
2017-03-05T06:37:12.007Z,268
2017-03-05T06:37:52.657Z,284
2017-03-05T06:38:33.315Z,308
2017-03-05T06:39:13.964Z,356
2017-03-05T06:39:54.735Z,412
2017-03-05T06:40:35.375Z,384
2017-03-05T06:41:16.048Z,364
2017-03-05T06:41:56.792Z,388
2017-03-05T06:42:37.446Z,388
2017-03-05T06:43:18.096Z,412
2017-03-05T06:43:58.758Z,424
2017-03-05T06:44:39.397Z,388
2017-03-05T06:45:20.914Z,432
2017-03-05T06:46:03.618Z,516
2017-03-05T06:46:44.325Z,528
2017-03-05T06:47:24.988Z,476
2017-03-05T06:48:05.564Z,416
2017-03-05T06:48:46.115Z,432
2017-03-05T06:49:26.788Z,524
2017-03-05T06:50:07.491Z,620
2017-03-05T06:50:48.145Z,660
2017-03-05T06:51:28.722Z,584
2017-03-05T06:52:09.459Z,516
2017-03-05T06:52:50.215Z,416
2017-03-05T06:53:30.783Z,392
2017-03-05T06:54:11.507Z,396
2017-03-05T06:54:52.157Z,452
2017-03-05T06:55:32.829Z,488
2017-03-05T06:56:13.569Z,600
2017-03-05T06:56:54.235Z,684
2017-03-05T06:57:34.881Z,800
2017-03-05T06:58:15.527Z,804
2017-03-05T06:58:56.189Z,888
2017-03-05T06:59:36.839Z,952
2017-03-05T07:00:17.381Z,940
2017-03-05T07:00:58.093Z,856
2017-03-05T07:01:38.790Z,860
2017-03-05T07:02:19.344Z,940
2017-03-05T07:02:59.994Z,1032
2017-03-05T07:03:40.577Z,1024
2017-03-05T07:04:21.234Z,956
2017-03-05T07:05:02.984Z,908
2017-03-05T07:05:43.739Z,852
2017-03-05T07:06:24.312Z,848
2017-03-05T07:07:04.988Z,844
2017-03-05T07:07:45.681Z,804
2017-03-05T07:08:26.347Z,980
2017-03-05T07:09:06.926Z,988
2017-03-05T07:09:47.584Z,896
2017-03-05T07:10:28.291Z,800
2017-03-05T07:11:09.915Z,916
2017-03-05T07:11:50.486Z,884
2017-03-05T07:12:31.118Z,856
2017-03-05T07:13:11.845Z,828
2017-03-05T07:13:52.486Z,856
2017-03-05T07:14:33.048Z,768
2017-03-05T07:15:13.758Z,928
2017-03-05T07:15:54.435Z,1016
2017-03-05T07:16:35.112Z,1068
2017-03-05T07:17:15.853Z,1120
2017-03-05T07:17:56.504Z,1172
2017-03-05T07:18:37.191Z,1168
2017-03-05T07:19:17.915Z,1244
2017-03-05T07:19:59.585Z,1452
2017-03-05T07:20:40.255Z,1584
2017-03-05T07:21:20.900Z,1740
2017-03-05T07:22:02.582Z,1944
2017-03-05T07:22:43.223Z,2000
2017-03-05T07:23:23.858Z,2096
2017-03-05T07:24:04.540Z,1980
2017-03-05T07:24:45.287Z,1828
2017-03-05T07:25:25.941Z,1884
2017-03-05T07:26:06.599Z,2128
2017-03-05T07:26:47.258Z,2168
2017-03-05T07:27:27.913Z,2172
2017-03-05T07:28:08.564Z,2252
2017-03-05T07:28:49.212Z,2312
2017-03-05T07:29:29.851Z,1892
2017-03-05T07:30:10.515Z,1452
2017-03-05T07:30:51.072Z,1356
2017-03-05T07:31:31.826Z,1216
2017-03-05T07:32:12.373Z,1140
2017-03-05T07:32:53.076Z,1180
2017-03-05T07:33:33.789Z,1212
2017-03-05T07:34:14.430Z,1216
2017-03-05T07:34:54.977Z,1240
2017-03-05T07:35:35.703Z,1112
2017-03-05T07:36:16.347Z,1008
2017-03-05T07:36:56.993Z,1084
2017-03-05T07:37:37.637Z,1132
2017-03-05T07:38:18.309Z,1332
2017-03-05T07:38:58.947Z,1548
2017-03-05T07:39:39.602Z,1584
2017-03-05T07:40:20.287Z,1680
2017-03-05T07:41:00.966Z,1792
2017-03-05T07:41:41.513Z,2268
2017-03-05T07:42:23.166Z,2580
2017-03-05T07:43:04.863Z,3036
2017-03-05T07:43:45.416Z,3292
2017-03-05T07:44:26.151Z,3600
2017-03-05T07:45:06.847Z,4100
2017-03-05T07:45:47.475Z,4596
2017-03-05T07:46:28.131Z,4992
2017-03-05T07:47:08.788Z,4884
2017-03-05T07:47:49.440Z,4816
2017-03-05T07:48:30.098Z,4740
2017-03-05T07:49:10.846Z,4780
2017-03-05T07:49:51.499Z,4868
2017-03-05T07:50:32.161Z,4944
2017-03-05T07:51:12.911Z,4944
2017-03-05T07:51:53.563Z,4952
2017-03-05T07:52:34.321Z,4864
2017-03-05T07:53:15.079Z,4824
2017-03-05T07:53:55.768Z,4840
2017-03-05T07:54:36.491Z,4852
2017-03-05T07:55:17.258Z,4880
2017-03-05T07:55:58.004Z,5080
2017-03-05T07:56:39.677Z,5188
2017-03-05T07:57:20.431Z,5140
2017-03-05T07:58:01.331Z,5208
2017-03-05T07:58:42.034Z,5316
2017-03-05T07:59:22.707Z,5352
2017-03-05T08:00:03.469Z,5032
2017-03-05T08:00:44.210Z,4932
2017-03-05T08:01:24.959Z,4972
2017-03-05T08:02:05.711Z,4780
2017-03-05T08:02:46.468Z,4496
2017-03-05T08:03:27.132Z,4372
2017-03-05T08:04:07.874Z,4384
2017-03-05T08:04:48.575Z,4500
2017-03-05T08:05:29.198Z,4636
2017-03-05T08:06:09.937Z,4720
2017-03-05T08:06:50.597Z,4808
2017-03-05T08:07:31.242Z,4916
2017-03-05T08:08:11.997Z,5012
2017-03-05T08:08:52.767Z,5148
2017-03-05T08:09:33.504Z,5480
2017-03-05T08:10:14.259Z,5552
2017-03-05T08:10:55.038Z,5564
2017-03-05T08:11:35.773Z,5468
2017-03-05T08:12:16.933Z,5628
2017-03-05T08:12:57.474Z,5704
2017-03-05T08:13:38.153Z,5788
2017-03-05T08:14:18.904Z,5756
2017-03-05T08:14:59.652Z,5600
2017-03-05T08:15:40.405Z,5680
2017-03-05T08:16:21.070Z,6000
2017-03-05T08:17:01.826Z,5852
2017-03-05T08:17:42.574Z,5648
2017-03-05T08:18:23.232Z,5496
2017-03-05T08:19:03.987Z,5376
2017-03-05T08:19:44.735Z,5300
2017-03-05T08:20:25.492Z,5232
2017-03-05T08:21:06.260Z,5160
2017-03-05T08:21:47.929Z,5032
2017-03-05T08:22:28.676Z,5056
2017-03-05T08:23:09.340Z,5248
2017-03-05T08:23:49.993Z,5388
2017-03-05T08:24:30.645Z,5492
2017-03-05T08:25:11.308Z,5472
2017-03-05T08:25:51.950Z,5264
2017-03-05T08:26:32.595Z,4900
2017-03-05T08:27:13.255Z,4684
2017-03-05T08:27:53.916Z,4588
2017-03-05T08:28:34.559Z,4612
2017-03-05T08:29:15.209Z,4636
2017-03-05T08:29:55.901Z,4292
2017-03-05T08:30:36.515Z,3880
2017-03-05T08:31:17.180Z,3744
2017-03-05T08:31:57.822Z,3804
2017-03-05T08:32:38.466Z,3744
2017-03-05T08:33:19.130Z,3612
2017-03-05T08:33:59.781Z,3692
2017-03-05T08:34:40.433Z,3708
2017-03-05T08:35:21.087Z,3408
2017-03-05T08:36:01.740Z,3304
2017-03-05T08:36:42.392Z,3328
2017-03-05T08:37:23.136Z,3752
2017-03-05T08:38:03.814Z,4080
2017-03-05T08:38:44.667Z,4284
2017-03-05T08:39:25.261Z,4144
2017-03-05T08:40:05.914Z,3856
2017-03-05T08:40:46.517Z,3712
2017-03-05T08:41:27.105Z,3428
2017-03-05T08:42:07.783Z,3540
2017-03-05T08:42:48.367Z,3552
2017-03-05T08:43:29.016Z,3708
2017-03-05T08:44:09.667Z,3780
2017-03-05T08:44:50.295Z,3800
2017-03-05T08:45:30.852Z,3688
2017-03-05T08:46:11.484Z,3764
2017-03-05T08:46:52.073Z,3892
2017-03-05T08:47:32.747Z,4192
2017-03-05T08:48:13.308Z,4400
2017-03-05T08:48:53.899Z,4220
2017-03-05T08:49:34.491Z,4156
2017-03-05T08:50:15.151Z,4200
2017-03-05T08:50:55.708Z,4248
2017-03-05T08:51:36.313Z,4276
2017-03-05T08:52:16.906Z,4536
2017-03-05T08:52:57.558Z,4732
2017-03-05T08:53:38.141Z,4752
2017-03-05T08:54:18.719Z,4692
2017-03-05T08:54:59.317Z,4476
2017-03-05T08:55:39.923Z,4072
2017-03-05T08:56:21.609Z,4128
2017-03-05T08:57:04.216Z,4208
2017-03-05T08:57:44.833Z,4352
2017-03-05T08:58:25.504Z,4516
2017-03-05T08:59:07.177Z,4548
2017-03-05T08:59:48.838Z,4464
2017-03-05T09:00:29.508Z,4828
2017-03-05T09:01:10.152Z,5352
2017-03-05T09:01:50.804Z,5756
2017-03-05T09:02:31.478Z,5664
2017-03-05T09:03:12.137Z,5488
2017-03-05T09:03:52.781Z,5196
2017-03-05T09:04:34.440Z,4772
2017-03-05T09:05:15.092Z,4388
2017-03-05T09:05:55.688Z,4240
2017-03-05T09:06:36.383Z,4472
2017-03-05T09:07:16.950Z,4800
2017-03-05T09:07:57.607Z,4852
2017-03-05T09:08:38.220Z,4916
2017-03-05T09:09:18.796Z,5168
2017-03-05T09:09:59.421Z,5420
2017-03-05T09:10:40.370Z,5980
2017-03-05T09:11:20.966Z,6432
2017-03-05T09:12:01.633Z,6316
2017-03-05T09:12:42.258Z,6568
2017-03-05T09:13:22.948Z,6748
2017-03-05T09:14:03.585Z,6800
2017-03-05T09:14:44.265Z,6908
2017-03-05T09:15:25.940Z,6816
2017-03-05T09:16:06.518Z,6732
2017-03-05T09:16:47.082Z,6372
2017-03-05T09:17:27.723Z,6040
2017-03-05T09:18:08.376Z,5668
2017-03-05T09:18:48.976Z,5300
2017-03-05T09:19:29.575Z,5160
2017-03-05T09:20:10.222Z,5480
2017-03-05T09:20:51.891Z,6496
2017-03-05T09:21:33.574Z,5588
2017-03-05T09:22:14.236Z,5444
2017-03-05T09:22:54.888Z,5628
2017-03-05T09:23:35.449Z,6684
2017-03-05T09:24:16.085Z,5644
2017-03-05T09:24:56.748Z,5848
2017-03-05T09:25:37.395Z,5916
2017-03-05T09:26:19.081Z,5804
2017-03-05T09:26:59.731Z,5712
2017-03-05T09:27:41.402Z,5520
2017-03-05T09:28:22.064Z,6428
2017-03-05T09:29:02.714Z,6304
2017-03-05T09:29:43.361Z,6080
2017-03-05T09:30:24.014Z,5200
2017-03-05T09:31:04.568Z,4756
2017-03-05T09:31:45.200Z,4792
2017-03-05T09:32:25.877Z,4788
2017-03-05T09:33:06.418Z,6024
2017-03-05T09:33:47.076Z,6824
2017-03-05T09:34:27.722Z,6240
2017-03-05T09:35:08.301Z,6460
2017-03-05T09:35:48.945Z,5868
2017-03-05T09:36:29.577Z,5508
2017-03-05T09:37:10.228Z,5336
2017-03-05T09:37:50.776Z,5184
2017-03-05T09:38:31.453Z,5208
2017-03-05T09:39:12.086Z,5604
2017-03-05T09:39:52.636Z,5732
2017-03-05T09:40:33.290Z,5664